Etusivu
METAR-TAF:

METAR-TAF

Lentoasemat :

Alderney,

Leveyspiiri: 49-43N, Pituuspiiri: 002-12W, korkeus merenpinnasta: 71 m

Tämänhetkinen sää

Tämä raportti tehtiin 50 minuuttia sitten, kello 05.50 UTC
Tuuli 3 kn etelästä
Lämpötila 12°C
Kosteus 94%
Ilmanpaine 1028 hPa
Näkyvyys 10 km tai enemmän
ei pilviä alle 1500 m:ssä eikä cumulonimbus-pilviä

METAR: EGJA 210550Z 17003KT CAVOK 12/11 Q1028

Aika: 07:40 (06:40 UTC)

Sääennuste

Tämä raportti tehtiin 16 tuntia ja 43 minuuttia sitten, kello 13.57 UTC
Ennuste voimassa 20. päivästä klo 15 UTC - 20. päivään klo 19 UTC
Tuuli 10 kn idästä
Näkyvyys 10 km tai enemmän
ei pilviä alle 1500 m:ssä eikä cumulonimbus-pilviä

TAF: EGJA 201357Z 2015/2019 08010KT CAVOK

Säähavainnot ja -ennusteet yli 4000 lentoasemalta (METAR- ja TAF-raportit).

Käytössä olevat sääasemat on merkitty karttaan keltaisilla ja punaisilla pisteillä.

Aseta hiiri pisteen päälle nähdäksesi sääaseman nimen.

Klikkaa sitten nähdäksesi säähavainnot ja -ennusteet.

Kartan vaihtaminen: klikkaa mustalla rastilla varustettuja vihreitä pisteitä, niin voit zoomata sisään; viivalla varustettua vihreää pistettä, niin voit zoomata ulos tai vihreitä nuolia, niin pääset viereisille kartoille.


METAR-TAF: